sensor_id;sensor_type;location;lat;lon;timestamp;temperature;humidity
39983;DHT22;25670;44.782;10.356;2023-03-05T00:01:16;4.30;99.90
39983;DHT22;25670;44.782;10.356;2023-03-05T00:03:44;4.30;99.90
39983;DHT22;25670;44.782;10.356;2023-03-05T00:06:10;4.30;99.90
39983;DHT22;25670;44.782;10.356;2023-03-05T00:08:37;4.40;99.90
39983;DHT22;25670;44.782;10.356;2023-03-05T00:11:09;4.40;99.90
39983;DHT22;25670;44.782;10.356;2023-03-05T00:13:36;4.30;99.90
39983;DHT22;25670;44.782;10.356;2023-03-05T00:16:08;4.30;99.90
39983;DHT22;25670;44.782;10.356;2023-03-05T00:23:35;4.60;99.90
39983;DHT22;25670;44.782;10.356;2023-03-05T00:28:28;4.80;99.90
39983;DHT22;25670;44.782;10.356;2023-03-05T00:30:59;4.80;99.90
39983;DHT22;25670;44.782;10.356;2023-03-05T00:33:26;4.70;99.90
39983;DHT22;25670;44.782;10.356;2023-03-05T00:35:53;4.50;99.90
39983;DHT22;25670;44.782;10.356;2023-03-05T00:38:19;4.50;99.90
39983;DHT22;25670;44.782;10.356;2023-03-05T00:43:12;4.50;99.90
39983;DHT22;25670;44.782;10.356;2023-03-05T00:45:38;4.40;99.90
39983;DHT22;25670;44.782;10.356;2023-03-05T00:48:04;4.40;99.90
39983;DHT22;25670;44.782;10.356;2023-03-05T00:55:24;4.30;99.90
39983;DHT22;25670;44.782;10.356;2023-03-05T01:00:17;4.10;99.90
39983;DHT22;25670;44.782;10.356;2023-03-05T01:02:44;4.20;99.90
39983;DHT22;25670;44.782;10.356;2023-03-05T01:05:12;4.10;99.90
39983;DHT22;25670;44.782;10.356;2023-03-05T01:07:38;4.00;99.90
39983;DHT22;25670;44.782;10.356;2023-03-05T01:10:06;4.10;99.90
39983;DHT22;25670;44.782;10.356;2023-03-05T01:14:59;4.10;99.90
39983;DHT22;25670;44.782;10.356;2023-03-05T01:24:45;4.00;99.90
39983;DHT22;25670;44.782;10.356;2023-03-05T01:29:38;4.00;99.90
39983;DHT22;25670;44.782;10.356;2023-03-05T01:34:31;4.30;99.90
39983;DHT22;25670;44.782;10.356;2023-03-05T01:44:24;4.10;99.90
39983;DHT22;25670;44.782;10.356;2023-03-05T01:49:28;4.30;99.90
39983;DHT22;25670;44.782;10.356;2023-03-05T01:52:02;4.30;99.90
39983;DHT22;25670;44.782;10.356;2023-03-05T01:54:38;4.30;99.90
39983;DHT22;25670;44.782;10.356;2023-03-05T01:57:11;4.30;99.90
39983;DHT22;25670;44.782;10.356;2023-03-05T01:59:40;4.30;99.90
39983;DHT22;25670;44.782;10.356;2023-03-05T02:05:06;4.30;99.90
39983;DHT22;25670;44.782;10.356;2023-03-05T02:07:33;4.30;99.90
39983;DHT22;25670;44.782;10.356;2023-03-05T02:10:24;4.20;99.90
39983;DHT22;25670;44.782;10.356;2023-03-05T02:12:52;4.30;99.90
39983;DHT22;25670;44.782;10.356;2023-03-05T02:15:19;4.20;99.90
39983;DHT22;25670;44.782;10.356;2023-03-05T02:17:46;4.20;99.90
39983;DHT22;25670;44.782;10.356;2023-03-05T02:20:16;4.30;99.90
39983;DHT22;25670;44.782;10.356;2023-03-05T02:25:27;4.30;99.90
39983;DHT22;25670;44.782;10.356;2023-03-05T02:30:24;4.30;99.90
39983;DHT22;25670;44.782;10.356;2023-03-05T02:32:50;4.40;99.90
39983;DHT22;25670;44.782;10.356;2023-03-05T02:40:12;6.10;99.90
39983;DHT22;25670;44.782;10.356;2023-03-05T02:45:08;4.40;99.90
39983;DHT22;25670;44.782;10.356;2023-03-05T02:50:04;4.20;99.90
39983;DHT22;25670;44.782;10.356;2023-03-05T02:52:30;4.10;99.90
39983;DHT22;25670;44.782;10.356;2023-03-05T02:57:23;4.10;99.90
39983;DHT22;25670;44.782;10.356;2023-03-05T02:59:50;4.00;99.90
39983;DHT22;25670;44.782;10.356;2023-03-05T03:02:17;3.60;99.90
39983;DHT22;25670;44.782;10.356;2023-03-05T03:04:44;3.80;99.90
39983;DHT22;25670;44.782;10.356;2023-03-05T03:07:11;3.70;99.90
39983;DHT22;25670;44.782;10.356;2023-03-05T03:12:05;3.70;99.90
39983;DHT22;25670;44.782;10.356;2023-03-05T03:14:34;3.80;99.90
39983;DHT22;25670;44.782;10.356;2023-03-05T03:17:11;3.80;99.90
39983;DHT22;25670;44.782;10.356;2023-03-05T03:19:38;3.90;99.90
39983;DHT22;25670;44.782;10.356;2023-03-05T03:22:05;3.90;99.90
39983;DHT22;25670;44.782;10.356;2023-03-05T03:24:32;4.00;99.90
39983;DHT22;25670;44.782;10.356;2023-03-05T03:34:19;3.90;99.90
39983;DHT22;25670;44.782;10.356;2023-03-05T03:36:46;3.90;99.90
39983;DHT22;25670;44.782;10.356;2023-03-05T03:39:13;3.70;99.90
39983;DHT22;25670;44.782;10.356;2023-03-05T03:41:42;3.70;99.90
39983;DHT22;25670;44.782;10.356;2023-03-05T03:44:09;3.50;99.90
39983;DHT22;25670;44.782;10.356;2023-03-05T03:46:37;3.40;99.90
39983;DHT22;25670;44.782;10.356;2023-03-05T03:49:03;3.10;99.90
39983;DHT22;25670;44.782;10.356;2023-03-05T03:51:30;3.30;99.90
39983;DHT22;25670;44.782;10.356;2023-03-05T03:53:58;3.30;99.90
39983;DHT22;25670;44.782;10.356;2023-03-05T04:01:21;3.10;99.90
39983;DHT22;25670;44.782;10.356;2023-03-05T04:03:47;3.10;99.90
39983;DHT22;25670;44.782;10.356;2023-03-05T04:11:08;3.00;99.90
39983;DHT22;25670;44.782;10.356;2023-03-05T04:16:01;2.90;99.90
39983;DHT22;25670;44.782;10.356;2023-03-05T04:18:27;2.80;99.90
39983;DHT22;25670;44.782;10.356;2023-03-05T04:25:50;2.60;99.90
39983;DHT22;25670;44.782;10.356;2023-03-05T04:40:32;2.40;99.90
39983;DHT22;25670;44.782;10.356;2023-03-05T04:52:45;2.90;99.90
39983;DHT22;25670;44.782;10.356;2023-03-05T04:55:14;2.80;99.90
39983;DHT22;25670;44.782;10.356;2023-03-05T04:57:40;2.60;99.90
39983;DHT22;25670;44.782;10.356;2023-03-05T05:00:11;2.70;99.90
39983;DHT22;25670;44.782;10.356;2023-03-05T05:02:43;2.50;99.90
39983;DHT22;25670;44.782;10.356;2023-03-05T05:05:15;2.40;99.90
39983;DHT22;25670;44.782;10.356;2023-03-05T05:10:10;2.60;99.90
39983;DHT22;25670;44.782;10.356;2023-03-05T05:15:04;2.60;99.90
39983;DHT22;25670;44.782;10.356;2023-03-05T05:19:59;2.60;99.90
39983;DHT22;25670;44.782;10.356;2023-03-05T05:22:27;2.40;99.90
39983;DHT22;25670;44.782;10.356;2023-03-05T05:24:53;2.30;99.90
39983;DHT22;25670;44.782;10.356;2023-03-05T05:27:20;2.40;99.90
39983;DHT22;25670;44.782;10.356;2023-03-05T05:32:22;2.30;99.90
39983;DHT22;25670;44.782;10.356;2023-03-05T05:34:56;2.20;99.90
39983;DHT22;25670;44.782;10.356;2023-03-05T05:37:23;2.30;99.90
39983;DHT22;25670;44.782;10.356;2023-03-05T05:42:21;2.20;99.90
39983;DHT22;25670;44.782;10.356;2023-03-05T05:44:48;2.10;99.90
39983;DHT22;25670;44.782;10.356;2023-03-05T05:47:16;2.10;99.90
39983;DHT22;25670;44.782;10.356;2023-03-05T05:57:02;2.40;99.90
39983;DHT22;25670;44.782;10.356;2023-03-05T05:59:28;2.30;99.90
39983;DHT22;25670;44.782;10.356;2023-03-05T06:11:41;2.30;99.90
39983;DHT22;25670;44.782;10.356;2023-03-05T06:16:33;2.20;99.90
39983;DHT22;25670;44.782;10.356;2023-03-05T06:21:29;2.30;99.90
39983;DHT22;25670;44.782;10.356;2023-03-05T06:26:24;2.30;99.90
39983;DHT22;25670;44.782;10.356;2023-03-05T06:28:51;2.60;99.90
39983;DHT22;25670;44.782;10.356;2023-03-05T06:31:20;2.80;99.90
39983;DHT22;25670;44.782;10.356;2023-03-05T06:33:48;2.90;99.90
39983;DHT22;25670;44.782;10.356;2023-03-05T06:36:16;2.90;99.90
39983;DHT22;25670;44.782;10.356;2023-03-05T06:41:12;2.90;99.90
39983;DHT22;25670;44.782;10.356;2023-03-05T06:43:40;3.10;99.90
39983;DHT22;25670;44.782;10.356;2023-03-05T06:46:17;3.10;99.90
39983;DHT22;25670;44.782;10.356;2023-03-05T06:48:45;3.70;99.90
39983;DHT22;25670;44.782;10.356;2023-03-05T06:51:14;3.20;99.90
39983;DHT22;25670;44.782;10.356;2023-03-05T06:56:07;3.20;99.90
39983;DHT22;25670;44.782;10.356;2023-03-05T07:10:46;3.70;99.90
39983;DHT22;25670;44.782;10.356;2023-03-05T07:15:40;4.00;99.90
39983;DHT22;25670;44.782;10.356;2023-03-05T07:20:34;4.20;99.90
39983;DHT22;25670;44.782;10.356;2023-03-05T07:27:54;4.70;99.90
39983;DHT22;25670;44.782;10.356;2023-03-05T07:35:13;5.00;99.90
39983;DHT22;25670;44.782;10.356;2023-03-05T07:37:39;5.20;99.90
39983;DHT22;25670;44.782;10.356;2023-03-05T07:40:06;5.30;99.90
39983;DHT22;25670;44.782;10.356;2023-03-05T07:42:33;5.40;99.90
39983;DHT22;25670;44.782;10.356;2023-03-05T07:47:38;5.70;99.90
39983;DHT22;25670;44.782;10.356;2023-03-05T08:07:14;7.00;99.90
39983;DHT22;25670;44.782;10.356;2023-03-05T08:12:08;7.30;99.90
39983;DHT22;25670;44.782;10.356;2023-03-05T08:14:36;7.50;99.90
39983;DHT22;25670;44.782;10.356;2023-03-05T08:17:03;7.60;99.90
39983;DHT22;25670;44.782;10.356;2023-03-05T08:19:31;7.60;99.90
39983;DHT22;25670;44.782;10.356;2023-03-05T08:21:57;7.80;99.90
39983;DHT22;25670;44.782;10.356;2023-03-05T08:24:24;8.10;99.90
39983;DHT22;25670;44.782;10.356;2023-03-05T08:26:55;8.20;99.90
39983;DHT22;25670;44.782;10.356;2023-03-05T08:31:49;8.50;99.90
39983;DHT22;25670;44.782;10.356;2023-03-05T08:39:09;9.00;99.90
39983;DHT22;25670;44.782;10.356;2023-03-05T08:48:55;9.30;99.90
39983;DHT22;25670;44.782;10.356;2023-03-05T08:51:23;9.30;99.90
39983;DHT22;25670;44.782;10.356;2023-03-05T08:53:54;9.50;99.90
39983;DHT22;25670;44.782;10.356;2023-03-05T08:58:47;10.00;99.90
39983;DHT22;25670;44.782;10.356;2023-03-05T09:01:14;9.90;99.90
39983;DHT22;25670;44.782;10.356;2023-03-05T09:03:40;10.00;99.90
39983;DHT22;25670;44.782;10.356;2023-03-05T09:06:08;10.30;99.90
39983;DHT22;25670;44.782;10.356;2023-03-05T09:08:35;10.20;99.90
39983;DHT22;25670;44.782;10.356;2023-03-05T09:11:03;10.40;99.90
39983;DHT22;25670;44.782;10.356;2023-03-05T09:13:30;10.50;99.90
39983;DHT22;25670;44.782;10.356;2023-03-05T09:15:59;10.60;99.90
39983;DHT22;25670;44.782;10.356;2023-03-05T09:18:26;10.60;99.90
39983;DHT22;25670;44.782;10.356;2023-03-05T09:23:19;10.70;99.90
39983;DHT22;25670;44.782;10.356;2023-03-05T09:25:45;11.20;99.90
39983;DHT22;25670;44.782;10.356;2023-03-05T09:28:12;10.80;99.90
39983;DHT22;25670;44.782;10.356;2023-03-05T09:33:05;11.00;99.90
39983;DHT22;25670;44.782;10.356;2023-03-05T09:35:34;11.10;99.90
39983;DHT22;25670;44.782;10.356;2023-03-05T09:38:01;11.20;99.90
39983;DHT22;25670;44.782;10.356;2023-03-05T09:40:32;11.20;99.90
39983;DHT22;25670;44.782;10.356;2023-03-05T09:43:15;11.20;99.90
39983;DHT22;25670;44.782;10.356;2023-03-05T09:45:56;11.30;99.90
39983;DHT22;25670;44.782;10.356;2023-03-05T09:48:41;11.70;99.90
39983;DHT22;25670;44.782;10.356;2023-03-05T09:51:15;11.50;99.90
39983;DHT22;25670;44.782;10.356;2023-03-05T09:56:36;11.50;99.90
39983;DHT22;25670;44.782;10.356;2023-03-05T10:01:58;11.70;99.90
39983;DHT22;25670;44.782;10.356;2023-03-05T10:04:45;11.70;99.90
39983;DHT22;25670;44.782;10.356;2023-03-05T10:07:33;12.10;99.90
39983;DHT22;25670;44.782;10.356;2023-03-05T10:10:03;12.00;99.90
39983;DHT22;25670;44.782;10.356;2023-03-05T10:15:12;12.00;99.90
39983;DHT22;25670;44.782;10.356;2023-03-05T10:17:48;11.90;99.90
39983;DHT22;25670;44.782;10.356;2023-03-05T10:45:33;12.70;99.90
39983;DHT22;25670;44.782;10.356;2023-03-05T10:47:43;12.80;99.90
39983;DHT22;25670;44.782;10.356;2023-03-05T10:50:18;13.20;99.90
39983;DHT22;25670;44.782;10.356;2023-03-05T10:52:47;13.20;99.90
39983;DHT22;25670;44.782;10.356;2023-03-05T10:55:19;13.10;99.90
39983;DHT22;25670;44.782;10.356;2023-03-05T10:57:46;13.10;99.90
39983;DHT22;25670;44.782;10.356;2023-03-05T11:00:24;13.20;99.90
39983;DHT22;25670;44.782;10.356;2023-03-05T11:03:04;11.00;99.90
39983;DHT22;25670;44.782;10.356;2023-03-05T11:05:44;13.30;99.90
39983;DHT22;25670;44.782;10.356;2023-03-05T11:08:32;13.40;99.90
39983;DHT22;25670;44.782;10.356;2023-03-05T11:11:09;13.60;99.90
39983;DHT22;25670;44.782;10.356;2023-03-05T11:16:16;13.50;99.90
39983;DHT22;25670;44.782;10.356;2023-03-05T11:18:42;13.60;99.90
39983;DHT22;25670;44.782;10.356;2023-03-05T11:21:19;13.60;99.90
39983;DHT22;25670;44.782;10.356;2023-03-05T11:24:15;13.70;99.90
39983;DHT22;25670;44.782;10.356;2023-03-05T11:26:47;13.80;99.90
39983;DHT22;25670;44.782;10.356;2023-03-05T11:29:30;13.80;99.90
39983;DHT22;25670;44.782;10.356;2023-03-05T11:32:15;14.00;99.90
39983;DHT22;25670;44.782;10.356;2023-03-05T11:34:44;14.20;99.90
39983;DHT22;25670;44.782;10.356;2023-03-05T11:37:27;14.20;99.90
39983;DHT22;25670;44.782;10.356;2023-03-05T11:42:37;14.30;99.90
39983;DHT22;25670;44.782;10.356;2023-03-05T11:45:06;14.30;99.90
39983;DHT22;25670;44.782;10.356;2023-03-05T11:47:47;14.50;99.90
39983;DHT22;25670;44.782;10.356;2023-03-05T11:50:23;14.60;99.90
39983;DHT22;25670;44.782;10.356;2023-03-05T11:52:54;14.60;99.90
39983;DHT22;25670;44.782;10.356;2023-03-05T11:55:38;14.80;99.90
39983;DHT22;25670;44.782;10.356;2023-03-05T12:00:35;14.80;99.90
39983;DHT22;25670;44.782;10.356;2023-03-05T12:03:06;14.80;99.90
39983;DHT22;25670;44.782;10.356;2023-03-05T12:05:40;14.90;99.90
39983;DHT22;25670;44.782;10.356;2023-03-05T12:08:13;15.10;99.90
39983;DHT22;25670;44.782;10.356;2023-03-05T12:10:40;15.20;99.90
39983;DHT22;25670;44.782;10.356;2023-03-05T12:13:17;15.30;99.90
39983;DHT22;25670;44.782;10.356;2023-03-05T12:23:58;16.00;99.90
39983;DHT22;25670;44.782;10.356;2023-03-05T12:29:42;16.40;99.90
39983;DHT22;25670;44.782;10.356;2023-03-05T12:34:48;17.20;99.90
39983;DHT22;25670;44.782;10.356;2023-03-05T12:47:35;20.50;99.70
39983;DHT22;25670;44.782;10.356;2023-03-05T12:50:01;20.50;98.00
39983;DHT22;25670;44.782;10.356;2023-03-05T12:52:31;20.70;97.10
39983;DHT22;25670;44.782;10.356;2023-03-05T12:57:57;22.20;94.90
39983;DHT22;25670;44.782;10.356;2023-03-05T13:00:28;22.00;94.80
39983;DHT22;25670;44.782;10.356;2023-03-05T13:03:01;22.10;92.70
39983;DHT22;25670;44.782;10.356;2023-03-05T13:05:37;22.10;92.80
39983;DHT22;25670;44.782;10.356;2023-03-05T13:10:37;22.90;92.20
39983;DHT22;25670;44.782;10.356;2023-03-05T13:13:04;23.10;92.20
39983;DHT22;25670;44.782;10.356;2023-03-05T13:15:31;22.90;92.10
39983;DHT22;25670;44.782;10.356;2023-03-05T13:17:59;23.30;91.40
39983;DHT22;25670;44.782;10.356;2023-03-05T13:20:36;23.60;91.30
39983;DHT22;25670;44.782;10.356;2023-03-05T13:25:42;24.70;89.10
39983;DHT22;25670;44.782;10.356;2023-03-05T13:28:15;24.20;87.10
39983;DHT22;25670;44.782;10.356;2023-03-05T13:30:51;24.70;86.60
39983;DHT22;25670;44.782;10.356;2023-03-05T13:33:23;25.20;85.50
39983;DHT22;25670;44.782;10.356;2023-03-05T13:35:50;25.60;82.90
39983;DHT22;25670;44.782;10.356;2023-03-05T13:41:03;25.50;82.00
39983;DHT22;25670;44.782;10.356;2023-03-05T13:43:29;25.30;80.50
39983;DHT22;25670;44.782;10.356;2023-03-05T13:45:56;25.30;80.30
39983;DHT22;25670;44.782;10.356;2023-03-05T13:48:26;25.30;79.70
39983;DHT22;25670;44.782;10.356;2023-03-05T13:50:56;25.80;78.60
39983;DHT22;25670;44.782;10.356;2023-03-05T13:53:25;26.70;77.40
39983;DHT22;25670;44.782;10.356;2023-03-05T13:55:56;27.00;76.30
39983;DHT22;25670;44.782;10.356;2023-03-05T13:58:42;26.70;75.30
39983;DHT22;25670;44.782;10.356;2023-03-05T14:01:31;27.30;74.90
39983;DHT22;25670;44.782;10.356;2023-03-05T14:10:18;25.80;74.90
39983;DHT22;25670;44.782;10.356;2023-03-05T14:12:29;25.40;74.70
39983;DHT22;25670;44.782;10.356;2023-03-05T14:14:53;25.60;74.90
39983;DHT22;25670;44.782;10.356;2023-03-05T14:17:21;24.30;76.40
39983;DHT22;25670;44.782;10.356;2023-03-05T14:19:51;24.80;74.70
39983;DHT22;25670;44.782;10.356;2023-03-05T14:22:32;25.50;75.80
39983;DHT22;25670;44.782;10.356;2023-03-05T14:24:59;26.90;73.90
39983;DHT22;25670;44.782;10.356;2023-03-05T14:27:26;27.50;71.90
39983;DHT22;25670;44.782;10.356;2023-03-05T14:29:53;27.50;72.70
39983;DHT22;25670;44.782;10.356;2023-03-05T14:32:32;28.20;72.00
39983;DHT22;25670;44.782;10.356;2023-03-05T14:35:01;27.60;70.20
39983;DHT22;25670;44.782;10.356;2023-03-05T14:37:34;27.90;70.50
39983;DHT22;25670;44.782;10.356;2023-03-05T14:40:02;27.00;69.50
39983;DHT22;25670;44.782;10.356;2023-03-05T14:45:20;27.10;70.40
39983;DHT22;25670;44.782;10.356;2023-03-05T14:47:48;27.00;69.60
39983;DHT22;25670;44.782;10.356;2023-03-05T14:50:23;26.80;69.20
39983;DHT22;25670;44.782;10.356;2023-03-05T14:52:54;27.00;69.50
39983;DHT22;25670;44.782;10.356;2023-03-05T14:55:23;26.60;70.00
39983;DHT22;25670;44.782;10.356;2023-03-05T14:57:58;25.90;71.20
39983;DHT22;25670;44.782;10.356;2023-03-05T15:00:27;26.70;71.10
39983;DHT22;25670;44.782;10.356;2023-03-05T15:02:53;26.90;71.20
39983;DHT22;25670;44.782;10.356;2023-03-05T15:05:20;26.90;71.10
39983;DHT22;25670;44.782;10.356;2023-03-05T15:07:47;26.40;70.70
39983;DHT22;25670;44.782;10.356;2023-03-05T15:10:18;26.70;70.80
39983;DHT22;25670;44.782;10.356;2023-03-05T15:12:45;26.00;70.80
39983;DHT22;25670;44.782;10.356;2023-03-05T15:15:15;25.60;71.60
39983;DHT22;25670;44.782;10.356;2023-03-05T15:17:44;25.60;71.70
39983;DHT22;25670;44.782;10.356;2023-03-05T15:20:18;25.70;72.60
39983;DHT22;25670;44.782;10.356;2023-03-05T15:22:44;26.20;72.30
39983;DHT22;25670;44.782;10.356;2023-03-05T15:25:11;26.60;72.00
39983;DHT22;25670;44.782;10.356;2023-03-05T15:27:39;27.00;70.70
39983;DHT22;25670;44.782;10.356;2023-03-05T15:30:07;26.70;70.30
39983;DHT22;25670;44.782;10.356;2023-03-05T15:32:33;26.50;70.10
39983;DHT22;25670;44.782;10.356;2023-03-05T15:34:59;26.20;70.60
39983;DHT22;25670;44.782;10.356;2023-03-05T15:37:26;25.90;70.70
39983;DHT22;25670;44.782;10.356;2023-03-05T15:39:52;25.90;71.30
39983;DHT22;25670;44.782;10.356;2023-03-05T15:42:18;25.50;70.80
39983;DHT22;25670;44.782;10.356;2023-03-05T15:44:44;25.30;70.60
39983;DHT22;25670;44.782;10.356;2023-03-05T15:47:11;24.70;72.40
39983;DHT22;25670;44.782;10.356;2023-03-05T15:49:37;24.80;73.00
39983;DHT22;25670;44.782;10.356;2023-03-05T15:52:03;25.10;72.70
39983;DHT22;25670;44.782;10.356;2023-03-05T15:54:30;25.30;72.60
39983;DHT22;25670;44.782;10.356;2023-03-05T15:56:56;25.10;73.10
39983;DHT22;25670;44.782;10.356;2023-03-05T15:59:22;25.10;71.90
39983;DHT22;25670;44.782;10.356;2023-03-05T16:01:50;24.60;73.10
39983;DHT22;25670;44.782;10.356;2023-03-05T16:04:17;24.90;72.60
39983;DHT22;25670;44.782;10.356;2023-03-05T16:06:47;25.20;73.00
39983;DHT22;25670;44.782;10.356;2023-03-05T16:09:15;25.30;71.80
39983;DHT22;25670;44.782;10.356;2023-03-05T16:11:43;25.30;72.10
39983;DHT22;25670;44.782;10.356;2023-03-05T16:14:17;24.40;72.80
39983;DHT22;25670;44.782;10.356;2023-03-05T16:16:44;24.20;73.90
39983;DHT22;25670;44.782;10.356;2023-03-05T16:19:13;24.50;73.50
39983;DHT22;25670;44.782;10.356;2023-03-05T16:21:41;24.30;73.20
39983;DHT22;25670;44.782;10.356;2023-03-05T16:24:07;23.80;73.80
39983;DHT22;25670;44.782;10.356;2023-03-05T16:26:35;22.80;75.10
39983;DHT22;25670;44.782;10.356;2023-03-05T16:29:01;21.60;77.00
39983;DHT22;25670;44.782;10.356;2023-03-05T16:31:32;21.70;81.40
39983;DHT22;25670;44.782;10.356;2023-03-05T16:34:03;21.90;78.30
39983;DHT22;25670;44.782;10.356;2023-03-05T16:36:30;21.70;79.60
39983;DHT22;25670;44.782;10.356;2023-03-05T16:39:02;20.60;77.60
39983;DHT22;25670;44.782;10.356;2023-03-05T16:41:28;21.00;78.90
39983;DHT22;25670;44.782;10.356;2023-03-05T16:43:55;20.60;80.30
39983;DHT22;25670;44.782;10.356;2023-03-05T16:46:23;20.20;81.20
39983;DHT22;25670;44.782;10.356;2023-03-05T16:48:50;20.30;83.70
39983;DHT22;25670;44.782;10.356;2023-03-05T16:51:16;20.10;82.40
39983;DHT22;25670;44.782;10.356;2023-03-05T16:56:09;18.70;87.30
39983;DHT22;25670;44.782;10.356;2023-03-05T16:58:37;17.60;88.20
39983;DHT22;25670;44.782;10.356;2023-03-05T17:01:14;16.90;90.70
39983;DHT22;25670;44.782;10.356;2023-03-05T17:03:41;16.10;92.50
39983;DHT22;25670;44.782;10.356;2023-03-05T17:06:15;16.10;94.00
39983;DHT22;25670;44.782;10.356;2023-03-05T17:08:43;15.60;94.50
39983;DHT22;25670;44.782;10.356;2023-03-05T17:11:09;15.40;98.30
39983;DHT22;25670;44.782;10.356;2023-03-05T17:16:03;14.30;99.90
39983;DHT22;25670;44.782;10.356;2023-03-05T17:20:56;13.30;99.90
39983;DHT22;25670;44.782;10.356;2023-03-05T17:23:23;13.60;99.90
39983;DHT22;25670;44.782;10.356;2023-03-05T17:25:49;14.10;99.90
39983;DHT22;25670;44.782;10.356;2023-03-05T17:28:16;13.20;99.90
39983;DHT22;25670;44.782;10.356;2023-03-05T17:30:43;13.00;99.90
39983;DHT22;25670;44.782;10.356;2023-03-05T17:38:05;12.70;99.90
39983;DHT22;25670;44.782;10.356;2023-03-05T17:43:02;12.50;99.90
39983;DHT22;25670;44.782;10.356;2023-03-05T17:50:22;12.50;99.90
39983;DHT22;25670;44.782;10.356;2023-03-05T17:52:48;12.30;99.90
39983;DHT22;25670;44.782;10.356;2023-03-05T18:00:15;12.80;99.90
39983;DHT22;25670;44.782;10.356;2023-03-05T18:02:43;11.90;99.90
39983;DHT22;25670;44.782;10.356;2023-03-05T18:10:04;11.60;99.90
39983;DHT22;25670;44.782;10.356;2023-03-05T18:17:24;11.40;99.90
39983;DHT22;25670;44.782;10.356;2023-03-05T18:32:03;10.90;99.90
39983;DHT22;25670;44.782;10.356;2023-03-05T18:34:30;10.30;99.90
39983;DHT22;25670;44.782;10.356;2023-03-05T18:39:28;10.90;99.90
39983;DHT22;25670;44.782;10.356;2023-03-05T18:41:54;10.60;99.90
39983;DHT22;25670;44.782;10.356;2023-03-05T18:46:47;10.60;99.90
39983;DHT22;25670;44.782;10.356;2023-03-05T18:51:40;10.50;99.90
39983;DHT22;25670;44.782;10.356;2023-03-05T18:54:08;10.40;99.90
39983;DHT22;25670;44.782;10.356;2023-03-05T18:56:34;10.30;99.90
39983;DHT22;25670;44.782;10.356;2023-03-05T19:11:51;9.80;99.90
39983;DHT22;25670;44.782;10.356;2023-03-05T19:14:17;9.70;99.90
39983;DHT22;25670;44.782;10.356;2023-03-05T19:19:17;9.00;99.90
39983;DHT22;25670;44.782;10.356;2023-03-05T19:21:51;9.20;99.90
39983;DHT22;25670;44.782;10.356;2023-03-05T19:24:20;9.40;99.90
39983;DHT22;25670;44.782;10.356;2023-03-05T19:29:14;9.60;99.90
39983;DHT22;25670;44.782;10.356;2023-03-05T19:36:34;9.80;99.90
39983;DHT22;25670;44.782;10.356;2023-03-05T19:39:05;9.70;99.90
39983;DHT22;25670;44.782;10.356;2023-03-05T19:51:20;9.20;99.90
39983;DHT22;25670;44.782;10.356;2023-03-05T19:53:47;9.20;99.90
39983;DHT22;25670;44.782;10.356;2023-03-05T19:56:15;9.00;99.90
39983;DHT22;25670;44.782;10.356;2023-03-05T20:01:14;9.40;99.90
39983;DHT22;25670;44.782;10.356;2023-03-05T20:03:44;9.50;99.90
39983;DHT22;25670;44.782;10.356;2023-03-05T20:08:39;9.80;99.90
39983;DHT22;25670;44.782;10.356;2023-03-05T20:11:06;9.20;99.90
39983;DHT22;25670;44.782;10.356;2023-03-05T20:13:32;9.40;99.90
39983;DHT22;25670;44.782;10.356;2023-03-05T20:15:58;9.20;99.90
39983;DHT22;25670;44.782;10.356;2023-03-05T20:18:24;9.70;99.90
39983;DHT22;25670;44.782;10.356;2023-03-05T20:20:55;9.10;99.90
39983;DHT22;25670;44.782;10.356;2023-03-05T20:23:27;9.00;99.90
39983;DHT22;25670;44.782;10.356;2023-03-05T20:25:57;9.00;99.90
39983;DHT22;25670;44.782;10.356;2023-03-05T20:30:59;8.90;99.90
39983;DHT22;25670;44.782;10.356;2023-03-05T20:33:27;8.70;99.90
39983;DHT22;25670;44.782;10.356;2023-03-05T20:35:54;8.70;99.90
39983;DHT22;25670;44.782;10.356;2023-03-05T20:38:22;8.80;99.90
39983;DHT22;25670;44.782;10.356;2023-03-05T20:43:26;9.00;99.90
39983;DHT22;25670;44.782;10.356;2023-03-05T20:45:53;8.90;99.90
39983;DHT22;25670;44.782;10.356;2023-03-05T20:48:23;8.60;99.90
39983;DHT22;25670;44.782;10.356;2023-03-05T20:50:49;8.60;99.90
39983;DHT22;25670;44.782;10.356;2023-03-05T20:58:09;8.70;99.90
39983;DHT22;25670;44.782;10.356;2023-03-05T21:00:36;8.60;99.90
39983;DHT22;25670;44.782;10.356;2023-03-05T21:05:31;8.80;99.90
39983;DHT22;25670;44.782;10.356;2023-03-05T21:07:59;9.10;99.90
39983;DHT22;25670;44.782;10.356;2023-03-05T21:10:26;9.20;99.90
39983;DHT22;25670;44.782;10.356;2023-03-05T21:12:53;9.20;99.90
39983;DHT22;25670;44.782;10.356;2023-03-05T21:15:25;9.30;99.90
39983;DHT22;25670;44.782;10.356;2023-03-05T21:20:28;9.30;99.90
39983;DHT22;25670;44.782;10.356;2023-03-05T21:22:55;9.30;99.90
39983;DHT22;25670;44.782;10.356;2023-03-05T21:25:27;9.20;99.90
39983;DHT22;25670;44.782;10.356;2023-03-05T21:30:31;9.20;99.90
39983;DHT22;25670;44.782;10.356;2023-03-05T21:33:01;9.10;99.90
39983;DHT22;25670;44.782;10.356;2023-03-05T21:35:28;9.10;99.90
39983;DHT22;25670;44.782;10.356;2023-03-05T21:45:17;9.20;99.90
39983;DHT22;25670;44.782;10.356;2023-03-05T21:47:44;9.20;99.90
39983;DHT22;25670;44.782;10.356;2023-03-05T21:50:11;9.10;99.90
39983;DHT22;25670;44.782;10.356;2023-03-05T21:55:06;9.10;99.90
39983;DHT22;25670;44.782;10.356;2023-03-05T22:09:45;9.10;99.90
39983;DHT22;25670;44.782;10.356;2023-03-05T22:15:44;9.00;99.90
39983;DHT22;25670;44.782;10.356;2023-03-05T22:18:12;9.10;99.90
39983;DHT22;25670;44.782;10.356;2023-03-05T22:20:39;8.90;99.90
39983;DHT22;25670;44.782;10.356;2023-03-05T22:23:06;8.90;99.90
39983;DHT22;25670;44.782;10.356;2023-03-05T22:25:32;8.80;99.90
39983;DHT22;25670;44.782;10.356;2023-03-05T22:32:52;8.90;99.90
39983;DHT22;25670;44.782;10.356;2023-03-05T22:40:14;8.90;99.90
39983;DHT22;25670;44.782;10.356;2023-03-05T22:45:13;8.80;99.90
39983;DHT22;25670;44.782;10.356;2023-03-05T22:48:01;9.00;99.90
39983;DHT22;25670;44.782;10.356;2023-03-05T23:00:19;9.00;99.90
39983;DHT22;25670;44.782;10.356;2023-03-05T23:02:52;9.00;99.90
39983;DHT22;25670;44.782;10.356;2023-03-05T23:10:15;9.00;99.90
39983;DHT22;25670;44.782;10.356;2023-03-05T23:12:44;8.90;99.90
39983;DHT22;25670;44.782;10.356;2023-03-05T23:15:13;9.00;99.90
39983;DHT22;25670;44.782;10.356;2023-03-05T23:17:40;8.90;99.90
39983;DHT22;25670;44.782;10.356;2023-03-05T23:20:09;8.80;99.90
39983;DHT22;25670;44.782;10.356;2023-03-05T23:22:37;8.00;99.90
39983;DHT22;25670;44.782;10.356;2023-03-05T23:25:04;8.80;99.90